createdAt,value
2022-09-06T00:01:47.377Z,18.00
2022-09-06T00:04:44.601Z,20.80
2022-09-06T00:07:41.977Z,19.80
2022-09-06T00:10:39.621Z,17.20
2022-09-06T00:13:36.729Z,17.20
2022-09-06T00:16:33.720Z,18.80
2022-09-06T00:19:31.187Z,18.60
2022-09-06T00:22:28.696Z,18.60
2022-09-06T00:25:26.246Z,13.40
2022-09-06T00:28:23.828Z,19.40
2022-09-06T00:31:23.489Z,18.40
2022-09-06T00:34:20.611Z,21.00
2022-09-06T00:37:17.403Z,19.40
2022-09-06T00:40:14.557Z,16.80
2022-09-06T00:43:11.161Z,20.40
2022-09-06T00:46:09.636Z,17.00
2022-09-06T00:49:12.668Z,18.00
2022-09-06T00:52:11.124Z,17.00
2022-09-06T00:55:09.147Z,20.60
2022-09-06T00:58:06.320Z,20.00
2022-09-06T01:01:03.536Z,16.60
2022-09-06T01:04:00.648Z,21.20
2022-09-06T01:07:25.825Z,20.40
2022-09-06T01:10:36.801Z,16.20
2022-09-06T01:13:55.046Z,18.60
2022-09-06T01:17:20.798Z,20.00
2022-09-06T01:20:52.178Z,20.00
2022-09-06T01:23:58.585Z,20.80
2022-09-06T01:27:14.536Z,19.80
2022-09-06T01:30:13.031Z,19.00
2022-09-06T01:33:12.506Z,22.80
2022-09-06T01:36:11.577Z,17.60
2022-09-06T01:39:11.827Z,16.20
2022-09-06T01:42:17.724Z,21.20
2022-09-06T01:45:17.920Z,21.80
2022-09-06T01:48:49.878Z,19.20
2022-09-06T01:52:13.113Z,20.80
2022-09-06T01:55:10.609Z,20.20
2022-09-06T01:58:32.101Z,23.60
2022-09-06T02:02:03.373Z,20.40
2022-09-06T02:05:06.374Z,21.80
2022-09-06T02:08:12.098Z,18.00
2022-09-06T02:11:09.701Z,23.00
2022-09-06T02:14:15.573Z,19.40
2022-09-06T02:17:13.458Z,22.60
2022-09-06T02:20:21.335Z,20.80
2022-09-06T02:23:19.641Z,23.00
2022-09-06T02:26:22.107Z,25.00
2022-09-06T02:29:19.857Z,22.60
2022-09-06T02:32:20.875Z,23.60
2022-09-06T02:35:17.517Z,21.00
2022-09-06T02:38:15.001Z,22.20
2022-09-06T02:41:13.326Z,23.40
2022-09-06T02:44:10.909Z,23.00
2022-09-06T02:47:07.681Z,24.20
2022-09-06T02:50:04.545Z,24.00
2022-09-06T02:53:09.708Z,27.00
2022-09-06T02:56:06.854Z,25.00
2022-09-06T02:59:05.528Z,24.60
2022-09-06T03:02:02.662Z,20.40
2022-09-06T03:04:59.672Z,26.80
2022-09-06T03:07:57.001Z,25.40
2022-09-06T03:10:56.279Z,26.00
2022-09-06T03:13:53.762Z,28.00
2022-09-06T03:16:50.883Z,27.80
2022-09-06T03:19:47.726Z,30.00
2022-09-06T03:22:44.891Z,30.00
2022-09-06T03:25:42.980Z,23.40
2022-09-06T03:28:40.860Z,23.80
2022-09-06T03:31:37.648Z,26.40
2022-09-06T03:34:34.770Z,29.40
2022-09-06T03:37:31.855Z,24.00
2022-09-06T03:40:28.782Z,26.00
2022-09-06T03:43:26.443Z,31.00
2022-09-06T03:46:24.156Z,27.60
2022-09-06T03:49:21.705Z,28.20
2022-09-06T03:52:18.694Z,28.00
2022-09-06T03:55:15.760Z,28.20
2022-09-06T03:58:12.870Z,32.40
2022-09-06T04:01:11.074Z,30.60
2022-09-06T04:04:08.705Z,29.80
2022-09-06T04:07:06.085Z,32.40
2022-09-06T04:10:04.088Z,31.00
2022-09-06T04:13:01.714Z,26.80
2022-09-06T04:15:58.805Z,28.60
2022-09-06T04:18:55.716Z,30.80
2022-09-06T04:21:53.056Z,27.20
2022-09-06T04:24:50.829Z,30.80
2022-09-06T04:27:47.797Z,28.00
2022-09-06T04:30:45.982Z,31.40
2022-09-06T04:33:42.910Z,33.00
2022-09-06T04:36:40.119Z,25.80
2022-09-06T04:39:37.721Z,31.00
2022-09-06T04:42:34.899Z,28.00
2022-09-06T04:45:32.103Z,30.00
2022-09-06T04:48:29.754Z,30.40
2022-09-06T04:51:26.482Z,29.40
2022-09-06T04:54:23.723Z,28.00
2022-09-06T04:57:20.653Z,31.60
2022-09-06T05:00:18.051Z,30.00
2022-09-06T05:03:15.671Z,29.80
2022-09-06T05:06:23.611Z,31.80
2022-09-06T05:09:20.587Z,31.40
2022-09-06T05:12:17.789Z,27.00
2022-09-06T05:15:14.835Z,28.40
2022-09-06T05:18:15.960Z,32.60
2022-09-06T05:21:14.461Z,28.20
2022-09-06T05:24:12.422Z,31.00
2022-09-06T05:27:09.879Z,31.40
2022-09-06T05:30:07.323Z,32.60
2022-09-06T05:33:04.826Z,25.00
2022-09-06T05:36:02.558Z,28.00
2022-09-06T05:38:59.737Z,27.60
2022-09-06T05:41:56.886Z,26.20
2022-09-06T05:44:53.560Z,24.40
2022-09-06T05:47:50.609Z,30.00
2022-09-06T05:50:47.911Z,27.80
2022-09-06T05:53:48.105Z,32.20
2022-09-06T05:56:45.877Z,23.80
2022-09-06T05:59:42.955Z,29.80
2022-09-06T06:02:40.585Z,27.00
2022-09-06T06:05:37.703Z,28.80
2022-09-06T06:08:36.007Z,28.20
2022-09-06T06:11:33.606Z,30.20
2022-09-06T06:14:30.662Z,30.80
2022-09-06T06:17:27.861Z,31.80
2022-09-06T06:20:25.470Z,31.80
2022-09-06T06:23:22.895Z,29.60
2022-09-06T06:26:20.077Z,33.40
2022-09-06T06:29:16.752Z,27.00
2022-09-06T06:32:13.555Z,29.40
2022-09-06T06:35:11.103Z,27.20
2022-09-06T06:38:07.346Z,30.80
2022-09-06T06:41:06.987Z,28.60
2022-09-06T06:44:05.518Z,27.80
2022-09-06T06:47:02.822Z,27.80
2022-09-06T06:49:59.627Z,31.20
2022-09-06T06:52:56.505Z,28.60
2022-09-06T06:55:54.204Z,30.40
2022-09-06T06:58:53.890Z,30.00
2022-09-06T07:01:51.106Z,29.80
2022-09-06T07:04:48.890Z,30.60
2022-09-06T07:07:46.188Z,29.20
2022-09-06T07:10:43.690Z,30.60
2022-09-06T07:13:41.539Z,32.00
2022-09-06T07:16:38.950Z,30.00
2022-09-06T07:26:21.295Z,32.80
2022-09-06T07:29:19.298Z,30.60
2022-09-06T07:32:16.603Z,27.20
2022-09-06T07:35:14.207Z,29.00
2022-09-06T07:38:12.019Z,28.40
2022-09-06T07:41:12.198Z,30.60
2022-09-06T07:44:10.410Z,27.60
2022-09-06T07:53:44.842Z,26.80
2022-09-06T07:56:42.027Z,22.00
2022-09-06T07:59:42.907Z,26.40
2022-09-06T08:02:41.014Z,27.40
2022-09-06T08:11:57.567Z,28.40
2022-09-06T08:14:55.387Z,29.80
2022-09-06T08:17:53.015Z,29.60
2022-09-06T08:20:49.672Z,25.60
2022-09-06T08:23:48.379Z,30.00
2022-09-06T08:26:45.892Z,26.60
2022-09-06T08:29:42.896Z,29.60
2022-09-06T08:32:41.340Z,25.80
2022-09-06T08:35:39.061Z,26.00
2022-09-06T08:38:36.158Z,29.40
2022-09-06T08:41:51.974Z,27.80
2022-09-06T08:47:52.480Z,25.80
2022-09-06T08:51:10.663Z,24.20
2022-09-06T08:54:42.606Z,23.00
2022-09-06T08:58:07.478Z,21.60
2022-09-06T09:01:13.589Z,27.80
2022-09-06T09:04:14.027Z,28.00
2022-09-06T09:07:26.523Z,27.00
2022-09-06T09:10:29.281Z,22.80
2022-09-06T09:13:35.505Z,26.40
2022-09-06T09:16:32.858Z,28.60
2022-09-06T09:19:33.575Z,23.80
2022-09-06T09:22:30.770Z,26.80
2022-09-06T09:25:27.899Z,29.60
2022-09-06T09:28:25.631Z,22.00
2022-09-06T09:31:34.610Z,24.80
2022-09-06T09:34:35.840Z,26.00
2022-09-06T09:37:49.694Z,25.80
2022-09-06T09:40:52.337Z,22.80
2022-09-06T09:44:10.345Z,25.80
2022-09-06T09:47:23.963Z,28.80
2022-09-06T09:50:33.977Z,21.80
2022-09-06T09:53:30.623Z,26.00
2022-09-06T09:56:47.820Z,23.00
2022-09-06T10:00:10.956Z,26.60
2022-09-06T10:03:18.975Z,28.20
2022-09-06T10:09:37.583Z,26.60
2022-09-06T10:12:39.317Z,24.20
2022-09-06T10:15:38.383Z,25.40
2022-09-06T10:18:45.117Z,24.80
2022-09-06T10:21:43.386Z,20.60
2022-09-06T10:24:59.502Z,23.80
2022-09-06T10:28:15.451Z,21.20
2022-09-06T10:31:36.898Z,23.40
2022-09-06T10:35:11.758Z,24.80
2022-09-06T10:38:27.838Z,24.60
2022-09-06T10:41:39.730Z,23.80
2022-09-06T10:44:53.079Z,19.80
2022-09-06T10:47:57.205Z,17.40
2022-09-06T10:50:55.290Z,22.80
2022-09-06T10:54:11.935Z,21.40
2022-09-06T11:00:46.810Z,23.00
2022-09-06T11:04:04.144Z,21.80
2022-09-06T11:07:04.251Z,25.80
2022-09-06T11:10:10.247Z,23.50
2022-09-06T11:13:10.848Z,22.40
2022-09-06T11:16:19.401Z,23.00
2022-09-06T11:19:22.692Z,20.25
2022-09-06T11:22:33.287Z,18.25
2022-09-06T11:25:48.811Z,21.20
2022-09-06T11:29:10.706Z,20.50
2022-09-06T11:32:30.152Z,21.25
2022-09-06T11:35:33.142Z,20.50
2022-09-06T11:38:29.977Z,19.80
2022-09-06T11:41:38.356Z,19.00
2022-09-06T11:44:57.409Z,16.50
2022-09-06T11:47:56.061Z,20.50
2022-09-06T11:50:58.973Z,14.00
2022-09-06T11:53:59.358Z,15.00
2022-09-06T11:57:00.383Z,14.25
2022-09-06T12:00:01.066Z,12.00
2022-09-06T12:06:37.679Z,11.75
2022-09-06T12:09:38.459Z,11.75
2022-09-06T12:12:43.377Z,15.00
2022-09-06T12:15:52.878Z,14.00
2022-09-06T12:18:49.736Z,8.50
2022-09-06T12:21:47.822Z,12.50
2022-09-06T12:24:44.962Z,12.50
2022-09-06T12:27:50.783Z,12.75
2022-09-06T12:30:48.170Z,14.25
2022-09-06T12:33:47.145Z,13.50
2022-09-06T12:36:56.936Z,13.25
2022-09-06T12:39:58.735Z,11.25
2022-09-06T12:42:56.036Z,13.75
2022-09-06T12:45:53.277Z,12.75
2022-09-06T12:49:20.107Z,11.75
2022-09-06T12:52:19.421Z,11.50
2022-09-06T12:55:38.514Z,10.75
2022-09-06T12:58:36.712Z,12.50
2022-09-06T13:01:34.602Z,14.25
2022-09-06T13:04:41.811Z,12.50
2022-09-06T13:07:41.621Z,12.40
2022-09-06T13:10:40.607Z,13.00
2022-09-06T13:13:44.582Z,18.40
2022-09-06T13:16:50.520Z,13.25
2022-09-06T13:19:49.701Z,15.25
2022-09-06T13:22:49.396Z,16.25
2022-09-06T13:25:51.677Z,15.25
2022-09-06T13:28:49.248Z,13.50
2022-09-06T13:31:47.605Z,13.50
2022-09-06T13:34:49.739Z,17.00
2022-09-06T13:37:49.524Z,12.50
2022-09-06T13:41:10.510Z,15.50
2022-09-06T13:44:17.162Z,14.00
2022-09-06T13:47:13.828Z,16.00
2022-09-06T13:50:11.242Z,19.80
2022-09-06T13:53:08.727Z,18.00
2022-09-06T13:56:08.816Z,18.75
2022-09-06T13:59:06.678Z,13.25
2022-09-06T14:02:05.766Z,14.60
2022-09-06T14:05:02.967Z,17.60
2022-09-06T14:08:00.118Z,19.40
2022-09-06T14:11:01.052Z,17.00
2022-09-06T14:14:03.801Z,16.00
2022-09-06T14:17:01.514Z,18.00
2022-09-06T14:19:59.336Z,17.80
2022-09-06T14:22:56.148Z,19.40
2022-09-06T14:25:56.734Z,16.00
2022-09-06T14:28:54.924Z,17.80
2022-09-06T14:31:52.317Z,17.00
2022-09-06T14:34:49.317Z,19.40
2022-09-06T14:37:46.190Z,17.40
2022-09-06T14:40:46.038Z,16.50
2022-09-06T14:43:43.717Z,18.40
2022-09-06T14:46:41.306Z,18.40
2022-09-06T14:49:41.274Z,19.00
2022-09-06T14:52:38.386Z,20.80
2022-09-06T14:55:39.161Z,17.40
2022-09-06T14:58:37.601Z,19.60
2022-09-06T15:01:38.656Z,15.20
2022-09-06T15:04:38.478Z,20.20
2022-09-06T15:07:35.557Z,18.60
2022-09-06T15:10:33.984Z,15.40
2022-09-06T15:13:31.468Z,18.20
2022-09-06T15:16:29.026Z,18.20
2022-09-06T15:19:27.308Z,16.60
2022-09-06T15:22:24.417Z,18.00
2022-09-06T15:25:21.463Z,19.00
2022-09-06T15:28:19.537Z,19.80
2022-09-06T15:31:19.727Z,14.20
2022-09-06T15:34:18.437Z,12.00
2022-09-06T15:37:17.590Z,17.20
2022-09-06T15:40:15.597Z,16.20
2022-09-06T15:43:13.453Z,16.20
2022-09-06T15:46:10.636Z,14.80
2022-09-06T15:49:09.339Z,18.40
2022-09-06T15:52:07.980Z,15.60
2022-09-06T15:55:24.374Z,17.60
2022-09-06T15:58:20.920Z,14.50
2022-09-06T16:01:20.133Z,15.75
2022-09-06T16:04:17.643Z,14.25
2022-09-06T16:07:15.331Z,15.00
2022-09-06T16:10:12.962Z,12.00
2022-09-06T16:13:10.048Z,13.00
2022-09-06T16:16:08.995Z,14.25
2022-09-06T16:19:06.687Z,14.00
2022-09-06T16:22:05.085Z,15.00
2022-09-06T16:25:02.540Z,13.50
2022-09-06T16:28:00.591Z,13.50
2022-09-06T16:31:05.572Z,14.50
2022-09-06T16:34:03.398Z,14.50
2022-09-06T16:37:00.717Z,13.25
2022-09-06T16:39:58.520Z,11.75
2022-09-06T16:42:55.870Z,14.25
2022-09-06T16:45:59.527Z,14.50
2022-09-06T16:48:59.535Z,13.50
2022-09-06T16:51:56.995Z,15.50
2022-09-06T16:54:54.684Z,13.75
2022-09-06T16:57:52.574Z,8.75
2022-09-06T17:00:49.659Z,14.00
2022-09-06T17:03:47.591Z,12.75
2022-09-06T17:06:45.218Z,15.25
2022-09-06T17:09:42.644Z,15.75
2022-09-06T17:12:39.750Z,16.00
2022-09-06T17:15:55.800Z,15.25
2022-09-06T17:18:53.791Z,16.00
2022-09-06T17:21:51.149Z,15.00
2022-09-06T17:24:48.470Z,14.75
2022-09-06T17:27:45.384Z,18.00
2022-09-06T17:30:42.516Z,13.50
2022-09-06T17:33:39.715Z,16.25
2022-09-06T17:36:37.723Z,14.50
2022-09-06T17:39:35.775Z,16.25
2022-09-06T17:42:33.785Z,12.00
2022-09-06T17:45:42.668Z,16.00
2022-09-06T17:48:40.272Z,14.25
2022-09-06T17:51:38.107Z,14.75
2022-09-06T17:54:35.241Z,14.00
2022-09-06T17:57:32.421Z,16.75
2022-09-06T18:00:29.932Z,15.50
2022-09-06T18:03:27.591Z,17.25
2022-09-06T18:06:25.406Z,14.00
2022-09-06T18:09:22.464Z,18.50
2022-09-06T18:12:20.283Z,14.75
2022-09-06T18:15:17.474Z,15.25
2022-09-06T18:18:14.321Z,15.75
2022-09-06T18:21:11.536Z,14.75
2022-09-06T18:24:09.402Z,13.50
2022-09-06T18:27:06.741Z,14.00
2022-09-06T18:30:04.810Z,15.75
2022-09-06T18:33:02.506Z,14.50
2022-09-06T18:35:59.615Z,12.75
2022-09-06T18:38:56.567Z,15.00
2022-09-06T18:42:07.149Z,12.00
2022-09-06T18:45:04.726Z,14.75
2022-09-06T18:48:01.506Z,14.25
2022-09-06T18:51:05.176Z,12.50
2022-09-06T18:54:02.696Z,15.50
2022-09-06T18:56:59.945Z,14.75
2022-09-06T18:59:57.293Z,12.25
2022-09-06T19:02:54.437Z,13.25
2022-09-06T19:05:51.556Z,13.20
2022-09-06T19:08:48.590Z,13.00
2022-09-06T19:11:49.238Z,15.75
2022-09-06T19:14:46.465Z,14.25
2022-09-06T19:17:43.579Z,13.50
2022-09-06T19:20:40.633Z,12.25
2022-09-06T19:23:39.692Z,14.80
2022-09-06T19:26:37.964Z,13.60
2022-09-06T19:29:35.946Z,14.20
2022-09-06T19:32:33.898Z,10.75
2022-09-06T19:35:31.554Z,12.40
2022-09-06T19:38:37.390Z,11.80
2022-09-06T19:41:46.630Z,15.40
2022-09-06T19:44:44.101Z,14.20
2022-09-06T19:47:41.626Z,15.20
2022-09-06T19:50:39.081Z,14.20
2022-09-06T19:53:37.689Z,15.60
2022-09-06T19:56:35.196Z,12.80
2022-09-06T19:59:36.110Z,14.20
2022-09-06T20:02:33.522Z,14.40
2022-09-06T20:05:30.781Z,14.80
2022-09-06T20:08:28.038Z,15.20
2022-09-06T20:11:27.740Z,15.40
2022-09-06T20:14:26.174Z,13.60
2022-09-06T20:17:33.728Z,11.20
2022-09-06T20:20:32.920Z,13.80
2022-09-06T20:23:30.923Z,14.00
2022-09-06T20:26:29.184Z,13.40
2022-09-06T20:29:26.511Z,16.00
2022-09-06T20:32:23.566Z,12.80
2022-09-06T20:35:20.353Z,14.40
2022-09-06T20:38:17.713Z,10.60
2022-09-06T20:41:19.381Z,14.00
2022-09-06T20:44:16.496Z,13.60
2022-09-06T20:47:14.358Z,15.00
2022-09-06T20:50:11.823Z,15.00
2022-09-06T20:53:10.050Z,10.60
2022-09-06T20:56:10.844Z,15.60
2022-09-06T20:59:09.493Z,14.40
2022-09-06T21:02:06.959Z,13.80
2022-09-06T21:05:05.641Z,14.80
2022-09-06T21:08:02.863Z,12.20
2022-09-06T21:11:01.341Z,11.00
2022-09-06T21:13:58.683Z,14.60
2022-09-06T21:16:56.136Z,18.60
2022-09-06T21:19:53.666Z,14.80
2022-09-06T21:22:50.921Z,15.00
2022-09-06T21:25:59.103Z,16.60
2022-09-06T21:28:56.832Z,15.80
2022-09-06T21:31:53.740Z,17.40
2022-09-06T21:34:50.945Z,18.20
2022-09-06T21:37:48.546Z,14.60
2022-09-06T21:40:45.527Z,16.00
2022-09-06T21:43:43.161Z,17.20
2022-09-06T21:46:40.816Z,19.20
2022-09-06T21:49:38.643Z,19.80
2022-09-06T21:52:35.467Z,16.80
2022-09-06T21:55:32.981Z,17.80
2022-09-06T21:58:31.082Z,16.80
2022-09-06T22:01:31.839Z,18.80
2022-09-06T22:04:29.417Z,16.80
2022-09-06T22:07:26.793Z,20.20
2022-09-06T22:10:24.180Z,18.20
2022-09-06T22:13:21.972Z,16.00
2022-09-06T22:16:21.918Z,19.80
2022-09-06T22:19:20.225Z,17.60
2022-09-06T22:22:17.954Z,17.60
2022-09-06T22:25:15.945Z,14.20
2022-09-06T22:28:12.402Z,18.40
2022-09-06T22:31:10.347Z,16.00
2022-09-06T22:34:07.703Z,18.20
2022-09-06T22:37:04.739Z,19.00
2022-09-06T22:40:02.227Z,16.00
2022-09-06T22:42:59.926Z,20.00
2022-09-06T22:46:08.858Z,19.40
2022-09-06T22:49:06.805Z,19.00
2022-09-06T22:52:03.914Z,19.40
2022-09-06T22:55:00.840Z,20.60
2022-09-06T22:57:58.127Z,16.20
2022-09-06T23:00:56.179Z,17.20
2022-09-06T23:03:53.885Z,20.00
2022-09-06T23:06:51.650Z,20.00
2022-09-06T23:09:48.722Z,19.00
2022-09-06T23:12:45.682Z,19.80
2022-09-06T23:15:46.168Z,18.40
2022-09-06T23:18:44.216Z,18.60
2022-09-06T23:21:41.860Z,20.40
2022-09-06T23:24:39.601Z,17.60
2022-09-06T23:27:36.912Z,18.60
2022-09-06T23:30:36.731Z,19.00
2022-09-06T23:33:35.909Z,19.20
2022-09-06T23:36:32.740Z,20.80
2022-09-06T23:39:29.761Z,21.40
2022-09-06T23:42:26.846Z,17.40
2022-09-06T23:45:23.892Z,17.40
2022-09-06T23:48:20.770Z,20.20
2022-09-06T23:51:17.912Z,6.20
2022-09-06T23:54:14.951Z,21.60
2022-09-06T23:57:11.710Z,15.20
